Airfield :
LOGIN :

Register | Disclaimer

   EN    FR    IT 

 










Legend :    VFR   Marginal VFR   IFR   Intensive IFR   Very Intensive IFR
Visi :
Ceiling :
>= 8 km
>= 3000ft
5 to 8 km
1000 to 3000 ft
1500m to 5 km
500 to 1000 ft
800 to 1500m
200 to 500 ft
< 800m
< 200 ft
Symbols :   Thunderstorms  Fog  Heavy snow  Heavy precipitations  Wind > 20 kt
SIGMETs :     Misc.  Thunderstorms  Icing  Turbulence  Mountain Waves  Volcanic Ashes






- Airport Elevation : 989 ft
- IATA code : TRN


LIMF - Torino Caselle

CURRENT METAR :
  • 301850Z 34007KT 9999 SCT048 27/19 Q1011

EXPIRED METARs :
  • 301750Z 04004KT 360V060 9999 FEW040 28/19 Q1011
  • 301720Z 06003KT 030V100 9999 FEW030 SCT050 29/18 Q1011
  • 301650Z 05004KT 020V080 9999 TS FEW020CB BKN050 29/17 Q1011
  • 301620Z 03004KT 360V060 9999 FEW030CB SCT060 29/16 Q1012 RMK CB/ OBSERVED/ WEST/ AND/ OVER/ THE/ FIELD

TAF TAF LIMF
Valid from the 30 at 18:00 until the 01 at 18:00 UTC


301700Z 3018/0118 VRB05KT 9999 SCT060
PROB30
TEMPO 3018/3024 TSRA
BECMG 0110/0112 04010KT



MET'MAP, your aeronautical weather chart ! - Copyright ORBIFLY December 2007 - Disclaimer

ORBIFLY MET'MAP TEAM :

Programming & Development : Alexandra Zaïnal
Original concept : Baudouin d'Aumeries
Technical & hardware support : Manuel Goepfert
Assistance : Marc-Olivier Méhu




SOURCES & CREDITS :

   NOAA